Reggio Calabria Airport LICR

Flugplatz Daten

Name: Reggio Calabria Airport

Ident: LICR

Lat: 38,07120132

Long: 15,65159988

Platzhöhe: 96 ft

IataCode: REG

City: Reggio Calabria

Metar

2021/12/04 00:20
LICR 040020Z AUTO 05006KT 9999 NCD 12/08 Q1007

Taf

2021/12/03 00:00
TAF LICR 032300Z 0400/0424 02012KT 9999 SCT030
TEMPO 0400/0405 SHRA
Gewünschte Webcam nicht vorhanden? Dann fügen Sie eine hinzu. Sie wird dann so schnell wie möglich freigeschaltet
Url: Title: